Terminal Aerodrome Forecast
Issued by NWS Wilmington, OH

Current Version | Previous Version | Graphics & Text | Print | Product List | Glossary On
Versions: 1 2 3 4 5 6 7 8 9 10 11 12 13 14 15 16 17 18 19 20 21 22 23 24 25 26 27
000
FTUS41 KILN 280536
TAFILN
TAF
KILN 280536Z 2806/2906 00000KT 6SM BR BKN090
     FM280800 07003KT 3SM BR FEW040 SCT250
      TEMPO 2809/2812 1SM BR
     FM281300 09005KT P6SM FEW040 SCT250
     FM281700 10006KT P6SM BKN050
     FM290000 VRB04KT P6SM FEW040 SCT250=

USA.gov is the U.S. government's official web portal to all federal, state and local government web resources and services.